createdAt,value
2022-10-28T00:00:02.556Z,1014.9
2022-10-28T00:15:02.928Z,1014.9
2022-10-28T00:30:02.555Z,1014.7
2022-10-28T00:45:02.804Z,1014.5
2022-10-28T01:00:03.241Z,1014.3
2022-10-28T01:15:02.677Z,1014.2
2022-10-28T01:30:03.093Z,1014.1
2022-10-28T01:45:02.544Z,1014.0
2022-10-28T02:00:02.953Z,1013.8
2022-10-28T02:15:02.591Z,1013.7
2022-10-28T02:30:02.858Z,1013.5
2022-10-28T02:45:02.320Z,1013.3
2022-10-28T03:00:02.721Z,1013.3
2022-10-28T03:15:03.170Z,1013.2
2022-10-28T03:30:02.582Z,1013.2
2022-10-28T03:45:03.037Z,1013.1
2022-10-28T04:00:02.608Z,1013.2
2022-10-28T04:15:02.921Z,1013.3
2022-10-28T04:30:02.581Z,1012.9
2022-10-28T04:45:02.801Z,1013.0
2022-10-28T05:00:03.238Z,1012.8
2022-10-28T05:15:02.689Z,1012.9
2022-10-28T05:30:03.099Z,1012.7
2022-10-28T05:45:02.597Z,1012.6
2022-10-28T06:00:02.975Z,1012.9
2022-10-28T06:15:01.074Z,1012.8
2022-10-28T06:30:01.349Z,1013.1
2022-10-28T06:45:00.816Z,1013.0
2022-10-28T07:00:02.760Z,1013.2
2022-10-28T07:15:03.186Z,1013.3
2022-10-28T07:30:02.661Z,1013.2
2022-10-28T07:45:03.089Z,1013.3
2022-10-28T08:00:02.684Z,1013.3
2022-10-28T08:15:02.955Z,1013.2
2022-10-28T08:30:02.371Z,1013.3
2022-10-28T08:45:02.914Z,1013.3
2022-10-28T09:00:02.243Z,1013.4
2022-10-28T09:15:02.716Z,1013.2
2022-10-28T09:30:03.158Z,1013.2
2022-10-28T09:45:02.653Z,1013.1
2022-10-28T10:00:02.996Z,1013.2
2022-10-28T10:15:02.647Z,1013.1
2022-10-28T10:30:02.871Z,1013.1
2022-10-28T10:45:02.284Z,1013.1
2022-10-28T11:00:02.730Z,1013.0
2022-10-28T11:15:03.168Z,1012.9
2022-10-28T11:30:02.670Z,1012.9
2022-10-28T11:45:03.033Z,1012.9
2022-10-28T12:00:02.698Z,1012.7
2022-10-28T12:15:02.892Z,1012.5
2022-10-28T12:30:02.343Z,1012.4
2022-10-28T12:45:02.776Z,1012.3
2022-10-28T13:00:03.211Z,1012.2
2022-10-28T13:15:02.746Z,1012.2
2022-10-28T13:30:02.100Z,1012.0
2022-10-28T13:45:02.699Z,1012.0
2022-10-28T14:00:02.977Z,1011.9
2022-10-28T14:15:02.409Z,1012.1
2022-10-28T14:30:02.843Z,1012.1
2022-10-28T14:45:02.238Z,1012.1
2022-10-28T15:00:02.720Z,1012.1
2022-10-28T15:15:02.126Z,1012.4
2022-10-28T15:30:02.723Z,1012.5
2022-10-28T15:45:03.033Z,1012.6
2022-10-28T16:00:02.513Z,1012.8
2022-10-28T16:15:02.887Z,1013.0
2022-10-28T16:30:02.317Z,1013.2
2022-10-28T16:45:02.754Z,1013.3
2022-10-28T17:00:03.200Z,1013.7
2022-10-28T17:15:02.738Z,1013.7
2022-10-28T17:30:03.170Z,1013.8
2022-10-28T17:45:02.739Z,1014.0
2022-10-28T18:00:02.952Z,1014.2
2022-10-28T18:15:02.385Z,1014.4
2022-10-28T18:30:02.826Z,1014.6
2022-10-28T18:45:02.261Z,1014.9
2022-10-28T19:00:19.071Z,1014.9
2022-10-28T19:15:03.127Z,1015.1
2022-10-28T19:30:05.478Z,1015.2
2022-10-28T19:45:01.987Z,1015.3
2022-10-28T20:00:02.427Z,1015.5
2022-10-28T20:15:02.873Z,1015.6
2022-10-28T20:30:02.290Z,1015.7
2022-10-28T20:45:02.777Z,1015.9
2022-10-28T21:00:03.169Z,1015.9
2022-10-28T21:15:02.782Z,1016.0
2022-10-28T21:30:02.110Z,1016.1
2022-10-28T21:45:02.478Z,1016.3
2022-10-28T22:00:02.914Z,1016.3
2022-10-28T22:15:03.347Z,1016.4
2022-10-28T22:30:02.818Z,1016.5
2022-10-28T22:45:03.212Z,1016.4
2022-10-28T23:00:02.915Z,1016.5
2022-10-28T23:15:02.080Z,1016.5
2022-10-28T23:30:02.556Z,1016.7
2022-10-28T23:45:03.000Z,1016.7
